Time;durP1;ratioP1;P1;durP2;ratioP2;P2;SDS_P1;SDS_P2;PMS_P1;PMS_P2;Temp;Humidity;BMP_temperature;BMP_pressure;BME280_temperature;BME280_humidity;BME280_pressure;Samples;Min_cycle;Max_cycle;Signal;HPM_P1;HPM_P2
2022/06/24 00:00:55;;;;;;;22.80;12.77;;;;;;;24.06;73.84;98550.56;5073730;28;20036;-92
2022/06/24 00:03:21;;;;;;;23.95;12.80;;;;;;;24.07;74.06;98557.72;5073440;28;20036;-91
2022/06/24 00:05:51;;;;;;;22.80;12.02;;;;;;;23.97;74.19;98550.34;5073585;28;20036;-91
2022/06/24 00:08:19;;;;;;;23.17;11.75;;;;;;;23.94;74.50;98556.06;5073562;28;20044;-92
2022/06/24 00:10:49;;;;;;;21.13;12.25;;;;;;;23.96;74.55;98559.50;5074039;28;20039;-90
2022/06/24 00:13:22;;;;;;;23.73;12.60;;;;;;;23.89;74.54;98552.84;5074020;28;20036;-90
2022/06/24 00:16:02;;;;;;;26.67;12.40;;;;;;;23.96;74.59;98564.94;5073218;28;20114;-92
2022/06/24 00:19:07;;;;;;;23.83;12.38;;;;;;;23.90;75.21;98570.91;5073957;28;20040;-93
2022/06/24 00:21:39;;;;;;;18.83;11.82;;;;;;;23.72;75.65;98534.41;5072891;28;20556;-92
2022/06/24 00:24:08;;;;;;;21.45;12.90;;;;;;;23.77;75.69;98548.50;5074130;28;20075;-93
2022/06/24 00:26:40;;;;;;;19.20;12.30;;;;;;;23.73;75.66;98537.00;5072978;28;20076;-91
2022/06/24 00:29:06;;;;;;;22.25;12.18;;;;;;;23.91;75.61;98569.88;5071509;28;20037;-91
2022/06/24 00:31:31;;;;;;;25.92;12.85;;;;;;;23.80;75.46;98548.22;5073302;28;20040;-91
2022/06/24 00:34:00;;;;;;;28.13;13.13;;;;;;;23.79;75.71;98546.50;5073540;28;20086;-94
2022/06/24 00:36:26;;;;;;;23.70;12.93;;;;;;;23.59;76.34;98526.44;5072505;28;20131;-91
2022/06/24 00:38:52;;;;;;;25.52;12.93;;;;;;;23.57;76.28;98525.69;5074221;28;20135;-93
2022/06/24 00:41:24;;;;;;;27.38;13.60;;;;;;;23.60;76.84;98541.75;5073375;28;20040;-90
2022/06/24 00:43:55;;;;;;;22.48;12.50;;;;;;;23.52;76.93;98531.53;5071698;28;20106;-91
2022/06/24 00:46:27;;;;;;;28.42;13.32;;;;;;;23.39;76.77;98522.69;5073688;28;20048;-92
2022/06/24 00:48:55;;;;;;;23.88;12.57;;;;;;;23.50;77.19;98536.22;5071589;28;20394;-90
2022/06/24 00:51:23;;;;;;;22.33;12.37;;;;;;;23.48;77.20;98535.47;5073685;28;20064;-91
2022/06/24 00:53:51;;;;;;;26.38;12.45;;;;;;;23.58;76.87;98547.28;5073542;28;20040;-91
2022/06/24 00:56:19;;;;;;;21.10;11.93;;;;;;;23.59;76.81;98545.44;5073372;28;20132;-89
2022/06/24 00:58:53;;;;;;;21.08;12.13;;;;;;;23.62;76.43;98549.75;5073336;28;20039;-91
2022/06/24 01:01:26;;;;;;;29.40;12.75;;;;;;;23.62;76.50;98550.63;5072819;28;20036;-94
2022/06/24 01:03:54;;;;;;;23.23;12.18;;;;;;;23.41;76.78;98519.84;5071258;28;20051;-93
2022/06/24 01:06:20;;;;;;;22.50;12.60;;;;;;;23.55;76.75;98538.53;5072977;28;20428;-91
2022/06/24 01:08:51;;;;;;;24.52;11.93;;;;;;;23.39;76.57;98514.53;5071681;28;20040;-91
2022/06/24 01:11:40;;;;;;;19.30;11.75;;;;;;;23.49;76.34;98529.06;5070760;28;20059;-91
2022/06/24 01:14:18;;;;;;;23.00;11.43;;;;;;;23.52;76.34;98525.22;5072826;28;20036;-90
2022/06/24 01:16:44;;;;;;;18.52;11.75;;;;;;;23.36;76.16;98504.81;5072057;28;20036;-89
2022/06/24 01:19:13;;;;;;;19.90;11.90;;;;;;;23.47;76.01;98525.63;5072911;28;20141;-91
2022/06/24 01:21:42;;;;;;;23.40;11.63;;;;;;;23.39;75.64;98511.84;5071522;28;20040;-91
2022/06/24 01:24:09;;;;;;;;;;;;;;;23.54;76.13;98532.25;5073063;28;20592;-91
2022/06/24 01:26:38;;;;;;;21.77;11.65;;;;;;;23.40;75.17;98504.53;5072097;28;19920;-91
2022/06/24 01:29:06;;;;;;;23.52;11.93;;;;;;;23.41;75.33;98504.44;5071419;28;20036;-90
2022/06/24 01:31:34;;;;;;;19.52;11.18;;;;;;;23.41;74.96;98500.84;5071526;28;20044;-91
2022/06/24 01:34:00;;;;;;;22.60;11.88;;;;;;;23.26;75.30;98484.00;5072229;28;20037;-90
2022/06/24 01:36:27;;;;;;;22.25;12.10;;;;;;;23.22;75.25;98477.97;5070516;28;20067;-92
2022/06/24 01:38:54;;;;;;;30.65;12.13;;;;;;;23.32;75.34;98494.34;5072831;28;20401;-91
2022/06/24 01:41:23;;;;;;;24.85;11.88;;;;;;;23.19;75.09;98478.25;5071519;28;20040;-91
2022/06/24 01:43:48;;;;;;;;;;;;;;;23.34;75.09;98501.38;5072397;28;20470;-90
2022/06/24 01:46:14;;;;;;;17.73;10.90;;;;;;;23.28;74.93;98495.59;5072034;28;19966;-90
2022/06/24 01:48:40;;;;;;;21.40;10.82;;;;;;;23.21;74.70;98484.41;5072242;28;20036;-90
2022/06/24 01:51:11;;;;;;;20.95;11.45;;;;;;;23.28;74.88;98492.88;5071829;28;20048;-92
2022/06/24 01:53:39;;;;;;;21.60;11.48;;;;;;;23.16;74.88;98483.91;5072468;28;20083;-90
2022/06/24 01:56:06;;;;;;;26.98;11.10;;;;;;;23.01;74.77;98453.53;5071861;28;20504;-91
2022/06/24 01:58:32;;;;;;;20.67;10.75;;;;;;;23.07;74.46;98471.97;5071067;28;20498;-91
2022/06/24 02:00:58;;;;;;;23.60;11.23;;;;;;;23.08;73.71;98449.31;5071843;28;20114;-89
2022/06/24 02:03:31;;;;;;;18.35;10.23;;;;;;;23.14;73.42;98458.78;5071921;28;20037;-90
2022/06/24 02:06:04;;;;;;;24.75;11.88;;;;;;;23.22;73.31;98479.81;5075569;28;20505;-91
2022/06/24 02:08:33;;;;;;;24.05;10.98;;;;;;;23.23;73.34;98485.13;5075834;28;20037;-91
2022/06/24 02:14:03;;;;;;;16.58;9.90;;;;;;;23.07;73.02;98457.56;5069619;28;20380;-93
2022/06/24 02:16:31;;;;;;;25.23;11.10;;;;;;;23.20;72.97;98481.81;5069917;28;20538;-89
2022/06/24 02:18:56;;;;;;;22.73;10.30;;;;;;;23.16;73.18;98471.22;5070540;28;20536;-90
2022/06/24 02:21:23;;;;;;;23.85;10.32;;;;;;;23.07;72.74;98442.13;5069375;28;20045;-91
2022/06/24 02:23:49;;;;;;;24.35;11.10;;;;;;;23.17;72.74;98475.66;5069031;28;20041;-91
2022/06/24 02:26:18;;;;;;;23.77;10.98;;;;;;;23.01;72.70;98442.69;5071055;28;20064;-89
2022/06/24 02:28:44;;;;;;;23.98;10.93;;;;;;;22.99;73.08;98447.34;5071915;28;20506;-92
2022/06/24 02:31:14;;;;;;;18.70;11.38;;;;;;;23.10;73.55;98473.59;5071217;28;20068;-92
2022/06/24 02:33:43;;;;;;;16.08;9.90;;;;;;;23.00;73.51;98454.50;5070518;28;20037;-93
2022/06/24 02:36:12;;;;;;;18.48;10.10;;;;;;;22.96;73.60;98445.72;5068170;28;20486;-92
2022/06/24 02:38:39;;;;;;;23.70;10.75;;;;;;;23.09;73.76;98461.84;5070000;28;20049;-94
2022/06/24 02:41:09;;;;;;;25.52;10.95;;;;;;;22.97;73.97;98449.31;5070235;28;20502;-93
2022/06/24 02:43:37;;;;;;;25.37;11.73;;;;;;;22.95;74.30;98443.16;5070812;28;20478;-91
2022/06/24 02:46:04;;;;;;;22.27;11.38;;;;;;;23.05;74.64;98465.84;5069044;28;20544;-92
2022/06/24 02:48:38;;;;;;;20.58;10.32;;;;;;;23.08;74.94;98479.13;5069285;28;20049;-90
2022/06/24 02:51:12;;;;;;;24.13;11.10;;;;;;;22.96;75.42;98467.41;5069401;28;20536;-90
2022/06/24 02:53:44;;;;;;;22.17;10.90;;;;;;;22.92;75.84;98470.50;5067504;28;20037;-90
2022/06/24 02:56:30;;;;;;;21.67;10.73;;;;;;;22.84;75.66;98459.44;5069410;28;20522;-92
2022/06/24 02:58:55;;;;;;;23.27;11.05;;;;;;;22.79;75.72;98446.25;5068477;28;20502;-91
2022/06/24 03:01:25;;;;;;;24.88;11.82;;;;;;;22.93;75.99;98483.09;5069526;28;20752;-91
2022/06/24 03:03:52;;;;;;;21.85;10.70;;;;;;;22.89;75.81;98459.94;5068671;28;20045;-90
2022/06/24 03:06:18;;;;;;;24.20;11.32;;;;;;;22.90;75.79;98465.22;5069142;28;20052;-91
2022/06/24 03:08:44;;;;;;;23.55;11.57;;;;;;;22.90;75.40;98462.50;5067804;28;20048;-90
2022/06/24 03:11:14;;;;;;;19.73;10.02;;;;;;;22.95;75.59;98476.53;5067717;28;20036;-90
2022/06/24 03:13:40;;;;;;;21.95;10.38;;;;;;;23.00;75.49;98483.44;5068397;28;20049;-90
2022/06/24 03:16:08;;;;;;;21.52;10.75;;;;;;;23.02;75.26;98482.34;5069246;28;20037;-91
2022/06/24 03:18:35;;;;;;;25.88;12.02;;;;;;;22.87;74.92;98462.75;5068608;28;20066;-90
2022/06/24 03:21:05;;;;;;;21.97;11.13;;;;;;;22.96;75.65;98474.69;5068663;28;20120;-89
2022/06/24 03:23:32;;;;;;;22.48;11.85;;;;;;;22.81;75.37;98446.13;5064707;28;20053;-89
2022/06/24 03:26:06;;;;;;;26.38;10.38;;;;;;;22.77;75.69;98457.25;5054710;28;20063;-91
2022/06/24 03:28:31;;;;;;;21.77;10.82;;;;;;;22.91;76.00;98487.78;5055667;28;20127;-92
2022/06/24 03:31:05;;;;;;;24.83;11.52;;;;;;;22.68;75.98;98454.41;5055545;28;20671;-92
2022/06/24 03:33:31;;;;;;;21.92;11.38;;;;;;;22.65;75.76;98455.53;5055427;28;20041;-89
2022/06/24 03:36:07;;;;;;;23.77;11.25;;;;;;;22.68;76.00;98463.41;5055737;28;20041;-92
2022/06/24 03:38:39;;;;;;;23.98;10.77;;;;;;;22.82;76.59;98494.81;5052981;28;20131;-90
2022/06/24 03:41:06;;;;;;;22.10;10.75;;;;;;;22.74;76.52;98490.00;5055721;28;20041;-90
2022/06/24 03:43:32;;;;;;;18.35;10.52;;;;;;;22.59;76.51;98460.59;5055322;28;20120;-91
2022/06/24 03:46:04;;;;;;;24.65;11.48;;;;;;;22.64;77.17;98464.66;5055027;28;20112;-90
2022/06/24 03:48:32;;;;;;;23.55;10.93;;;;;;;22.53;77.89;98461.94;5055220;28;20486;-91
2022/06/24 03:51:16;;;;;;;25.70;11.75;;;;;;;22.44;78.26;98470.81;5055225;28;20051;-92
2022/06/24 03:53:46;;;;;;;22.42;11.25;;;;;;;22.51;78.39;98481.06;5055263;28;20051;-91
2022/06/24 03:56:20;;;;;;;20.98;10.77;;;;;;;22.34;79.42;98468.00;5053181;28;20116;-91
2022/06/24 03:58:55;;;;;;;23.52;11.20;;;;;;;22.43;79.15;98486.22;5055405;28;20049;-93
2022/06/24 04:01:21;;;;;;;26.13;11.63;;;;;;;22.51;79.14;98491.00;5055432;28;20048;-92
2022/06/24 04:03:47;;;;;;;24.88;11.63;;;;;;;22.39;79.16;98462.22;5054738;28;20033;-91
2022/06/24 04:06:19;;;;;;;24.52;11.10;;;;;;;22.44;79.00;98462.69;5054456;28;20124;-91
2022/06/24 04:09:05;;;;;;;27.48;12.00;;;;;;;22.57;79.72;98493.22;5053843;28;20044;-90
2022/06/24 04:11:34;;;;;;;25.75;11.43;;;;;;;22.55;79.03;98479.81;5052543;28;20431;-91
2022/06/24 04:14:00;;;;;;;26.00;11.80;;;;;;;22.52;79.77;98493.59;5054987;28;20071;-92
2022/06/24 04:16:29;;;;;;;22.25;11.40;;;;;;;22.45;79.90;98477.97;5054520;28;20041;-92
2022/06/24 04:18:55;;;;;;;20.40;11.68;;;;;;;22.55;80.32;98487.06;5050469;28;20086;-92
2022/06/24 04:21:31;;;;;;;21.30;11.27;;;;;;;22.73;80.17;98509.13;5054321;28;20036;-91
2022/06/24 04:23:59;;;;;;;24.33;11.75;;;;;;;22.58;80.71;98500.38;5054247;28;20033;-90
2022/06/24 04:26:32;;;;;;;23.70;11.80;;;;;;;22.50;81.07;98473.88;5056764;28;20853;-91
2022/06/24 04:29:00;;;;;;;27.92;12.25;;;;;;;22.74;80.59;98511.69;5054443;28;20692;-92
2022/06/24 04:31:26;;;;;;;;;;;;;;;22.81;80.50;98516.63;5054093;28;20048;-92
2022/06/24 04:33:54;;;;;;;24.30;11.40;;;;;;;22.69;80.27;98477.84;5053907;28;20002;-90
2022/06/24 04:36:20;;;;;;;22.00;12.32;;;;;;;22.89;79.46;98503.31;5052646;28;20087;-89
2022/06/24 04:39:11;;;;;;;;;;;;;;;;;;;;;
2022/06/24 04:41:46;;;;;;;25.55;11.88;;;;;;;23.09;78.38;98502.53;5053496;28;20049;-92
2022/06/24 04:44:14;;;;;;;25.63;13.70;;;;;;;23.14;78.15;98511.19;5053944;28;20106;-90
2022/06/24 04:46:40;;;;;;;22.30;11.65;;;;;;;22.99;78.02;98482.59;5053870;28;20048;-91
2022/06/24 04:49:06;;;;;;;24.30;13.00;;;;;;;22.95;77.97;98476.53;5053957;28;20052;-91
2022/06/24 04:51:35;;;;;;;24.23;12.07;;;;;;;23.14;78.14;98507.63;5054211;28;20045;-91
2022/06/24 04:54:06;;;;;;;24.85;12.55;;;;;;;23.08;77.85;98484.56;5054115;28;20462;-94
2022/06/24 04:56:32;;;;;;;25.13;11.95;;;;;;;23.10;77.53;98482.59;5052961;28;20045;-92
2022/06/24 04:59:02;;;;;;;22.25;12.45;;;;;;;23.29;77.27;98489.16;5053588;28;20033;-93
2022/06/24 05:01:31;;;;;;;27.20;11.88;;;;;;;23.81;75.36;98495.63;5053632;28;20494;-93
2022/06/24 05:03:59;;;;;;;28.88;12.02;;;;;;;24.30;72.50;98479.63;5054602;28;20107;-92
2022/06/24 05:06:25;;;;;;;21.95;12.80;;;;;;;24.27;71.60;98490.78;5053304;28;20410;-92
2022/06/24 05:08:50;;;;;;;27.15;12.55;;;;;;;24.30;72.08;98487.78;5053113;28;20041;-92
2022/06/24 05:11:20;;;;;;;28.02;12.48;;;;;;;24.57;71.04;98481.78;5053533;28;20045;-92
2022/06/24 05:13:47;;;;;;;34.20;13.93;;;;;;;24.60;69.99;98484.25;5053264;28;20044;-90
2022/06/24 05:16:15;;;;;;;28.55;12.40;;;;;;;24.70;69.94;98485.13;5052225;28;20037;-92
2022/06/24 05:18:41;;;;;;;23.10;11.90;;;;;;;24.59;70.10;98490.66;5059648;28;20044;-91
2022/06/24 05:21:07;;;;;;;29.90;12.85;;;;;;;24.66;69.66;98482.81;5056081;28;20052;-91
2022/06/24 05:23:35;;;;;;;27.65;12.95;;;;;;;24.93;68.75;98479.47;5054039;28;20045;-92
2022/06/24 05:26:03;;;;;;;24.15;11.95;;;;;;;25.34;67.47;98496.63;5053710;28;20380;-92
2022/06/24 05:28:29;;;;;;;28.38;12.35;;;;;;;25.49;67.37;98505.22;5054126;28;20043;-96
2022/06/24 05:30:58;;;;;;;23.85;11.60;;;;;;;25.50;66.97;98480.56;5053611;28;20052;-94
2022/06/24 05:33:30;;;;;;;24.17;11.07;;;;;;;25.79;66.30;98512.41;5054340;28;20463;-94
2022/06/24 05:35:58;;;;;;;23.75;11.10;;;;;;;25.73;66.19;98492.03;5053823;28;20069;-94
2022/06/24 05:38:24;;;;;;;22.58;12.18;;;;;;;25.81;66.22;98515.84;5053691;28;20045;-94
2022/06/24 05:40:50;;;;;;;22.63;12.35;;;;;;;25.81;66.48;98510.38;5053608;28;20127;-92
2022/06/24 05:43:16;;;;;;;25.05;11.73;;;;;;;26.02;66.59;98529.31;5050679;28;20041;-93
2022/06/24 05:45:42;;;;;;;22.10;11.48;;;;;;;26.39;65.56;98514.88;5054102;28;20049;-93
2022/06/24 05:48:08;;;;;;;26.65;11.32;;;;;;;26.12;65.49;98507.50;5054130;28;20552;-93
2022/06/24 05:50:40;;;;;;;28.05;12.13;;;;;;;26.03;66.13;98529.16;5050196;28;20698;-91
2022/06/24 05:56:09;;;;;;;23.13;11.77;;;;;;;25.51;67.67;98527.72;5139967;27;20369;-91
2022/06/24 05:58:35;;;;;;;21.85;11.40;;;;;;;25.33;67.58;98514.81;5102610;28;20069;-90
2022/06/24 06:01:08;;;;;;;24.20;11.73;;;;;;;25.16;68.54;98513.59;5105122;28;20055;-92
2022/06/24 06:03:37;;;;;;;25.08;11.43;;;;;;;25.51;67.78;98528.56;5101099;28;20043;-94
2022/06/24 06:06:06;;;;;;;20.08;11.45;;;;;;;25.89;66.43;98526.03;5111482;28;20083;-93
2022/06/24 06:08:35;;;;;;;20.38;11.10;;;;;;;25.93;65.81;98530.19;5100859;28;20090;-94
2022/06/24 06:11:03;;;;;;;22.92;11.88;;;;;;;25.94;65.12;98505.53;5103380;28;20073;-95
2022/06/24 06:13:30;;;;;;;;;;;;;;;26.14;65.43;98554.53;5108218;28;20048;-94
2022/06/24 06:15:56;;;;;;;22.08;11.52;;;;;;;26.18;63.95;98506.91;5113729;28;19921;-95
2022/06/24 06:18:22;;;;;;;20.92;10.95;;;;;;;26.48;63.07;98516.75;5116432;28;20613;-95
2022/06/24 06:20:48;;;;;;;22.13;10.63;;;;;;;26.95;61.51;98543.97;5112298;28;20032;-95
2022/06/24 06:23:20;;;;;;;24.52;11.23;;;;;;;27.02;61.73;98523.28;5096935;28;20528;-93
2022/06/24 06:29:11;;;;;;;21.65;10.52;;;;;;;26.94;61.75;98549.59;5048113;28;20064;-96
2022/06/24 06:31:48;;;;;;;19.75;10.10;;;;;;;26.71;60.99;98547.25;5095132;28;20036;-95
2022/06/24 06:34:57;;;;;;;22.83;10.77;;;;;;;26.39;62.37;98521.22;5095420;28;20043;-95
2022/06/24 06:37:27;;;;;;;19.95;10.05;;;;;;;26.27;61.81;98525.13;5100558;28;20063;-92
2022/06/24 06:40:28;;;;;;;22.27;10.35;;;;;;;26.43;61.06;98521.75;5108574;28;20047;-94
2022/06/24 06:43:06;;;;;;;19.83;10.02;;;;;;;26.70;60.92;98533.78;5107777;28;20515;-92
2022/06/24 06:46:12;;;;;;;23.48;9.00;;;;;;;26.88;58.01;98537.41;5107689;28;20039;-92
2022/06/24 06:48:40;;;;;;;23.33;8.88;;;;;;;26.69;58.89;98527.44;5103313;28;20053;-94
2022/06/24 06:51:06;;;;;;;16.83;9.30;;;;;;;27.17;57.54;98533.66;5102892;28;20111;-93
2022/06/24 06:53:38;;;;;;;18.40;9.10;;;;;;;27.20;57.40;98523.31;5113841;28;20055;-94
2022/06/24 06:56:07;;;;;;;22.27;9.55;;;;;;;27.32;57.22;98534.03;5113887;28;20046;-94
2022/06/24 06:58:42;;;;;;;19.55;8.80;;;;;;;27.34;56.67;98521.09;5107264;28;20074;-94
2022/06/24 07:01:19;;;;;;;19.90;8.63;;;;;;;26.97;58.16;98531.03;5107570;28;20036;-94
2022/06/24 07:03:51;;;;;;;25.10;9.23;;;;;;;27.22;57.76;98543.16;5102153;28;20040;-94
2022/06/24 07:06:41;;;;;;;20.65;9.02;;;;;;;27.32;56.41;98525.84;5094121;28;20466;-93
2022/06/24 07:09:29;;;;;;;22.52;7.45;;;;;;;26.98;56.18;98531.94;5093260;28;20048;-94
2022/06/24 07:11:55;;;;;;;22.38;7.70;;;;;;;27.18;54.86;98527.22;5092204;28;20554;-95
2022/06/24 07:14:21;;;;;;;18.52;7.60;;;;;;;27.52;53.85;98515.63;5098761;28;20509;-94
2022/06/24 07:16:48;;;;;;;22.55;7.07;;;;;;;27.76;52.97;98531.41;5092580;28;20036;-94
2022/06/24 07:19:17;;;;;;;14.07;6.85;;;;;;;27.87;52.67;98531.22;5107708;28;20051;-91
2022/06/24 07:22:06;;;;;;;23.85;8.00;;;;;;;27.44;53.03;98543.75;5098115;28;20085;-93
2022/06/24 07:24:35;;;;;;;18.75;6.72;;;;;;;27.62;52.40;98519.16;5091574;28;20048;-94
2022/06/24 07:27:35;;;;;;;18.65;7.00;;;;;;;27.57;52.15;98525.09;5103085;28;20383;-94
2022/06/24 07:30:27;;;;;;;18.95;6.65;;;;;;;28.14;50.84;98521.16;5105714;27;20044;-93
2022/06/24 07:32:54;;;;;;;23.77;7.05;;;;;;;27.87;50.54;98533.94;5088304;28;20040;-92
2022/06/24 07:35:20;;;;;;;17.52;6.22;;;;;;;28.10;51.57;98523.34;5097807;28;20098;-95
2022/06/24 07:38:01;;;;;;;18.88;6.90;;;;;;;27.85;50.89;98525.03;5092028;28;20029;-90
2022/06/24 07:40:30;;;;;;;21.73;6.72;;;;;;;27.66;51.68;98521.41;5092998;28;20052;-95
2022/06/24 07:42:56;;;;;;;18.77;6.68;;;;;;;27.50;52.89;98521.28;5106873;28;20044;-92
2022/06/24 07:45:28;;;;;;;15.75;6.63;;;;;;;27.69;52.76;98516.66;5106418;28;20098;-96
2022/06/24 07:47:55;;;;;;;18.25;6.90;;;;;;;28.01;51.75;98507.91;5092783;28;20052;-95
2022/06/24 07:50:21;;;;;;;16.50;6.73;;;;;;;28.42;51.15;98491.78;5091052;28;20045;-95
2022/06/24 07:53:11;;;;;;;21.02;7.20;;;;;;;28.97;49.78;98523.38;5085200;28;20048;-94
2022/06/24 08:09:49;;;;;;;19.83;6.18;;;;;;;29.60;46.64;98489.19;5070725;28;20897;-94
2022/06/24 08:12:25;;;;;;;15.70;6.30;;;;;;;29.77;46.39;98460.78;5057731;28;20049;-94
2022/06/24 08:15:27;;;;;;;22.58;5.82;;;;;;;29.71;46.25;98488.00;5056352;28;20084;-94
2022/06/24 08:17:54;;;;;;;12.77;5.00;;;;;;;29.85;44.56;98473.63;5034034;28;20061;-93
2022/06/24 08:20:24;;;;;;;15.73;5.40;;;;;;;29.89;44.80;98464.06;5043394;28;20509;-94
2022/06/24 08:23:11;;;;;;;20.63;5.43;;;;;;;30.21;44.02;98459.53;5055287;28;20042;-95
2022/06/24 08:25:43;;;;;;;20.65;5.57;;;;;;;30.43;43.56;98464.31;5053944;28;20069;-95
2022/06/24 08:28:28;;;;;;;16.33;5.28;;;;;;;30.59;43.28;98451.59;5056556;28;20052;-94
2022/06/24 08:31:17;;;;;;;19.33;5.38;;;;;;;30.24;43.93;98437.25;5060150;28;20060;-93
2022/06/24 08:33:45;;;;;;;20.90;5.55;;;;;;;30.60;42.32;98434.06;5057511;28;20152;-95
2022/06/24 08:36:12;;;;;;;12.55;5.00;;;;;;;30.41;43.78;98452.66;5055748;28;20041;-93
2022/06/24 08:38:42;;;;;;;20.60;4.70;;;;;;;29.99;42.80;98437.28;5056006;28;20383;-95
2022/06/24 08:41:30;;;;;;;18.67;4.72;;;;;;;30.59;41.96;98468.06;5063411;28;20045;-96
2022/06/24 08:47:34;;;;;;;17.40;5.10;;;;;;;30.94;40.48;98450.25;4959648;29;20055;-93
2022/06/24 08:50:04;;;;;;;21.08;5.18;;;;;;;30.77;40.24;98421.97;4959129;29;20461;-95
2022/06/24 08:52:48;;;;;;;15.45;4.82;;;;;;;30.25;41.94;98438.94;4958603;29;20051;-95
2022/06/24 08:55:50;;;;;;;19.38;5.53;;;;;;;29.75;44.66;98448.28;4960879;29;20135;-95
2022/06/24 08:58:48;;;;;;;13.43;5.07;;;;;;;30.12;43.26;98455.09;4958678;29;20564;-93
2022/06/24 09:01:25;;;;;;;17.38;5.40;;;;;;;30.09;43.23;98421.50;4949905;28;20057;-94
2022/06/24 09:04:14;;;;;;;17.95;5.15;;;;;;;30.57;41.86;98416.06;4955224;29;20058;-95
2022/06/24 09:07:20;;;;;;;16.92;5.25;;;;;;;30.27;41.93;98442.38;4872168;29;20049;-93
2022/06/24 09:10:12;;;;;;;19.02;4.57;;;;;;;30.40;42.09;98418.03;4882355;29;20085;-94
2022/06/24 09:12:49;;;;;;;18.67;5.20;;;;;;;30.88;40.56;98418.00;4883867;29;20056;-96
2022/06/24 09:16:09;;;;;;;21.75;5.25;;;;;;;31.02;40.18;98417.25;4887202;29;20045;-94
2022/06/24 09:19:14;;;;;;;;;;;;;;;;;;;;;
2022/06/24 09:22:37;;;;;;;18.52;5.18;;;;;;;31.05;40.14;98405.91;5038598;28;20076;-95
2022/06/24 09:25:52;;;;;;;18.58;5.20;;;;;;;31.02;39.45;98411.78;5037687;28;20072;-96
2022/06/24 09:31:42;;;;;;;20.10;5.18;;;;;;;31.47;39.02;98407.38;5045165;28;20067;-94
2022/06/24 09:34:13;;;;;;;20.08;4.90;;;;;;;31.30;38.69;98401.09;5045885;28;20049;-95
2022/06/24 09:37:08;;;;;;;18.25;5.10;;;;;;;31.01;40.42;98411.94;5046603;28;20037;-93
2022/06/24 09:40:01;;;;;;;19.55;5.72;;;;;;;31.23;39.41;98410.25;5044537;28;20061;-94
2022/06/24 09:42:38;;;;;;;18.40;5.70;;;;;;;30.36;41.07;98444.13;5043733;28;20037;-95
2022/06/24 09:46:05;;;;;;;19.05;5.38;;;;;;;30.94;40.23;98438.41;5045817;28;20426;-95
2022/06/24 09:56:07;;;;;;;;;;;;;;;;;;;;;
2022/06/24 10:13:48;;;;;;;;;;;;;;;;;;;;;
2022/06/24 10:16:23;;;;;;;18.17;5.10;;;;;;;31.49;38.96;98399.78;6231972;23;20020;-93
2022/06/24 10:18:55;;;;;;;15.05;5.57;;;;;;;30.91;40.03;98382.81;6228070;23;20023;-94
2022/06/24 10:21:26;;;;;;;15.45;5.82;;;;;;;30.95;40.61;98388.81;6228462;23;20027;-93
2022/06/24 10:24:19;;;;;;;20.75;5.47;;;;;;;30.68;40.79;98357.19;6229724;23;20436;-95
2022/06/24 10:26:47;;;;;;;21.13;5.60;;;;;;;31.10;39.49;98370.53;6229709;23;20362;-96
2022/06/24 10:29:37;;;;;;;;;;;;;;;;;;;;;
2022/06/24 10:33:14;;;;;;;16.77;5.03;;;;;;;31.70;37.16;98357.84;6206195;23;20044;-92
2022/06/24 10:36:13;;;;;;;17.10;4.90;;;;;;;32.29;37.70;98356.22;6229564;23;20320;-94
2022/06/24 10:38:59;;;;;;;17.60;4.88;;;;;;;32.71;36.33;98376.72;6231268;23;20021;-95
2022/06/24 10:41:37;;;;;;;23.40;5.60;;;;;;;32.87;36.68;98370.94;6226786;23;20407;-95
2022/06/24 10:57:31;;;;;;;23.60;4.83;;;;;;;31.55;33.46;98367.97;6185493;22;1432478;-95
2022/06/24 11:00:08;;;;;;;17.27;4.50;;;;;;;32.07;34.01;98353.38;6224456;23;20051;-95
2022/06/24 11:02:45;;;;;;;24.10;4.30;;;;;;;32.67;33.19;98356.97;6222721;23;20046;-94
2022/06/24 11:05:32;;;;;;;19.75;4.40;;;;;;;32.76;33.16;98378.88;6223517;23;20012;-93
2022/06/24 11:08:13;;;;;;;14.25;4.57;;;;;;;33.09;32.82;98335.19;6226326;23;20023;-91
2022/06/24 11:10:50;;;;;;;20.10;4.60;;;;;;;33.10;32.81;98375.50;6225320;23;20023;-94
2022/06/24 11:14:09;;;;;;;;;;;;;;;;;;;;;
2022/06/24 11:17:06;;;;;;;19.17;4.25;;;;;;;32.94;33.46;98352.63;6228913;23;20125;-95
2022/06/24 11:19:47;;;;;;;15.07;4.68;;;;;;;32.78;32.66;98343.75;6227650;23;20044;-95
2022/06/24 11:22:28;;;;;;;18.52;4.30;;;;;;;32.98;31.95;98364.09;6229932;23;20017;-95
2022/06/24 11:24:55;;;;;;;21.55;5.00;;;;;;;32.42;31.87;98342.66;6229652;23;20016;-93
2022/06/24 11:27:48;;;;;;;19.37;4.60;;;;;;;32.33;31.75;98338.28;6229406;23;20031;-93
2022/06/24 11:30:45;;;;;;;20.52;4.65;;;;;;;32.38;31.77;98345.94;6197360;23;20036;-94
2022/06/24 11:34:04;;;;;;;19.40;4.10;;;;;;;32.29;31.87;98329.56;6230306;23;20027;-95
2022/06/24 11:36:41;;;;;;;20.48;4.18;;;;;;;31.90;32.03;98340.81;6219867;22;20099;-95
2022/06/24 11:39:19;;;;;;;18.48;4.30;;;;;;;32.10;31.35;98336.50;6228672;23;20016;-94
2022/06/24 11:42:09;;;;;;;20.08;3.97;;;;;;;32.42;31.62;98323.38;6226649;23;20059;-95
2022/06/24 11:44:53;;;;;;;22.20;4.25;;;;;;;32.90;30.51;98312.75;6226647;23;20027;-94
2022/06/24 11:47:51;;;;;;;18.70;4.22;;;;;;;33.32;30.79;98310.22;6229220;23;20072;-95
2022/06/24 11:51:13;;;;;;;22.38;4.57;;;;;;;33.74;29.68;98336.84;6224649;23;20103;-95
2022/06/24 11:53:43;;;;;;;15.02;3.70;;;;;;;33.69;28.54;98314.56;6106375;23;20046;-94
2022/06/24 11:56:17;;;;;;;15.52;4.13;;;;;;;33.86;28.72;98325.28;6103554;23;20030;-94
2022/06/24 11:58:54;;;;;;;17.23;4.20;;;;;;;33.67;29.77;98305.63;6101082;23;20021;-94
2022/06/24 12:01:27;;;;;;;20.67;4.53;;;;;;;33.26;29.78;98299.97;6098726;23;20019;-93
2022/06/24 12:04:23;;;;;;;17.20;3.65;;;;;;;33.72;30.05;98329.84;6101204;23;20074;-96
2022/06/24 12:07:36;;;;;;;20.05;4.55;;;;;;;33.22;29.53;98296.75;6104306;23;20042;-96
2022/06/24 12:10:12;;;;;;;20.25;4.95;;;;;;;32.92;29.94;98304.25;6164278;23;20053;-95
2022/06/24 12:12:57;;;;;;;14.52;3.83;;;;;;;33.29;29.80;98305.06;6110284;23;20042;-95
2022/06/24 12:15:58;;;;;;;16.95;4.00;;;;;;;33.04;29.18;98299.09;6101449;23;20367;-94
2022/06/24 12:18:29;;;;;;;16.95;4.57;;;;;;;33.32;29.98;98291.75;6106129;23;20026;-93
2022/06/24 12:21:02;;;;;;;19.92;4.55;;;;;;;33.36;28.97;98306.00;6105490;23;20029;-95
2022/06/24 12:23:44;;;;;;;14.70;4.10;;;;;;;33.41;29.08;98308.16;6102976;23;20057;-94
2022/06/24 12:26:43;;;;;;;16.13;3.47;;;;;;;33.45;28.45;98273.63;6099302;23;20026;-94
2022/06/24 12:29:23;;;;;;;17.17;3.92;;;;;;;33.44;28.15;98282.94;6057466;23;20018;-92
2022/06/24 12:32:10;;;;;;;17.10;4.18;;;;;;;33.10;29.11;98270.81;6101053;23;20137;-93
2022/06/24 12:34:52;;;;;;;14.65;3.75;;;;;;;33.60;28.32;98303.91;6098986;23;20022;-91
2022/06/24 12:37:28;;;;;;;18.13;3.60;;;;;;;33.43;27.67;98262.81;6100674;23;20022;-95
2022/06/24 12:40:23;;;;;;;14.23;3.20;;;;;;;33.77;27.61;98297.03;6100985;23;20029;-95
2022/06/24 12:43:11;;;;;;;15.82;3.63;;;;;;;33.75;26.86;98266.03;6102190;23;20097;-95
2022/06/24 12:45:41;;;;;;;11.98;3.03;;;;;;;34.13;26.63;98288.53;6100485;23;20019;-94
2022/06/24 12:51:26;;;;;;;12.90;2.88;;;;;;;33.84;23.07;98294.31;5098070;27;20187;-95
2022/06/24 12:54:12;;;;;;;10.13;2.35;;;;;;;33.96;19.40;98273.34;5079361;28;20047;-92
2022/06/24 12:56:40;;;;;;;9.95;2.40;;;;;;;33.85;20.20;98271.16;5071142;28;20045;-94
2022/06/24 12:59:08;;;;;;;;;;;;;;;34.25;21.64;98304.53;5065758;28;20064;-94
2022/06/24 13:02:08;;;;;;;10.45;2.83;;;;;;;34.02;22.55;98274.44;5081405;28;19921;-94
2022/06/24 13:04:38;;;;;;;10.32;2.95;;;;;;;34.21;19.70;98282.00;5079158;28;20135;-95
2022/06/24 13:07:08;;;;;;;10.38;2.38;;;;;;;34.26;19.51;98267.59;5080351;28;20044;-96
2022/06/24 13:09:49;;;;;;;13.65;2.92;;;;;;;34.01;21.92;98284.66;5076462;28;20028;-93
2022/06/24 13:12:23;;;;;;;13.85;3.00;;;;;;;34.04;23.62;98242.00;5075416;28;20037;-92
2022/06/24 13:14:59;;;;;;;12.00;2.95;;;;;;;34.28;23.73;98257.19;5076084;28;20041;-93
2022/06/24 13:17:48;;;;;;;13.93;2.70;;;;;;;34.66;22.73;98257.56;5080457;28;20100;-94